Decoded Metar for LEBA (CORDOBA in SPAIN) (IATA:ODB) | Meteo·Mobile Aviation Weather
aviador You're here:

LEBA Decoded Metar

CORDOBA in SPAIN
Report Time2019-07-22 16:00:00
UTC Time2019-07-22 16:30:43
Flight Rules vfr VFR
Wind260° at 04 kt
W.Decomp.*RWY 21: 2.5 kt HW 3.2 kt RCW
Visibility9999 m
Phenomena:N/A
Clouds:N/A
Expected CloudBase > 9,600 ft AGL from Temp-Dew spread
CeilingNone
Temp40°C (ISA +26)
Dew Point16°C (24% RH)
Heat Index40.7°C
QNH1013 hPa
Density Alt3,419 ft
Elevation302 ft
Report Wrong Elevation
Raw Report
LEBA 221600Z 26004KT 170V330 CAVOK 40/16 Q1013=

Extra information for LEBA:More info

Metar Taf Metar & Taf Last 4 Metars F.Rules Stats Wind Profile Meteogram Temp Stats Airport Information Weather charts Add Link Nearby VenuesMetar ALERT Operation Metar Decoded Social comments